sensor_id;sensor_type;location;lat;lon;timestamp;P1;durP1;ratioP1;P2;durP2;ratioP2
16828;SDS011;8531;48.078;11.968;2023-02-23T00:03:44;10.30;;;7.43;;
16828;SDS011;8531;48.078;11.968;2023-02-23T00:06:10;9.95;;;6.78;;
16828;SDS011;8531;48.078;11.968;2023-02-23T00:08:38;9.80;;;6.68;;
16828;SDS011;8531;48.078;11.968;2023-02-23T00:11:05;10.25;;;7.88;;
16828;SDS011;8531;48.078;11.968;2023-02-23T00:13:32;9.20;;;7.38;;
16828;SDS011;8531;48.078;11.968;2023-02-23T00:16:05;9.75;;;8.15;;
16828;SDS011;8531;48.078;11.968;2023-02-23T00:18:33;10.73;;;8.02;;
16828;SDS011;8531;48.078;11.968;2023-02-23T00:21:09;9.35;;;8.18;;
16828;SDS011;8531;48.078;11.968;2023-02-23T00:23:39;7.93;;;6.93;;
16828;SDS011;8531;48.078;11.968;2023-02-23T00:26:06;13.30;;;7.53;;
16828;SDS011;8531;48.078;11.968;2023-02-23T00:28:31;11.90;;;7.47;;
16828;SDS011;8531;48.078;11.968;2023-02-23T00:31:00;9.60;;;7.57;;
16828;SDS011;8531;48.078;11.968;2023-02-23T00:33:26;9.48;;;7.70;;
16828;SDS011;8531;48.078;11.968;2023-02-23T00:35:54;9.75;;;8.68;;
16828;SDS011;8531;48.078;11.968;2023-02-23T00:38:20;10.35;;;7.85;;
16828;SDS011;8531;48.078;11.968;2023-02-23T00:40:45;11.15;;;7.85;;
16828;SDS011;8531;48.078;11.968;2023-02-23T00:43:11;14.60;;;7.82;;
16828;SDS011;8531;48.078;11.968;2023-02-23T00:45:39;11.82;;;8.38;;
16828;SDS011;8531;48.078;11.968;2023-02-23T00:48:04;13.90;;;8.55;;
16828;SDS011;8531;48.078;11.968;2023-02-23T00:50:34;11.43;;;8.43;;
16828;SDS011;8531;48.078;11.968;2023-02-23T00:53:03;10.32;;;8.60;;
16828;SDS011;8531;48.078;11.968;2023-02-23T00:55:28;10.27;;;8.00;;
16828;SDS011;8531;48.078;11.968;2023-02-23T00:57:54;12.25;;;8.70;;
16828;SDS011;8531;48.078;11.968;2023-02-23T01:00:22;9.90;;;7.97;;
16828;SDS011;8531;48.078;11.968;2023-02-23T01:02:49;12.70;;;8.45;;
16828;SDS011;8531;48.078;11.968;2023-02-23T01:05:15;11.82;;;8.18;;
16828;SDS011;8531;48.078;11.968;2023-02-23T01:07:41;12.07;;;8.50;;
16828;SDS011;8531;48.078;11.968;2023-02-23T01:10:10;10.50;;;8.82;;
16828;SDS011;8531;48.078;11.968;2023-02-23T01:12:46;12.93;;;8.65;;
16828;SDS011;8531;48.078;11.968;2023-02-23T01:15:13;13.02;;;8.88;;
16828;SDS011;8531;48.078;11.968;2023-02-23T01:17:39;13.90;;;9.07;;
16828;SDS011;8531;48.078;11.968;2023-02-23T01:20:04;14.63;;;8.73;;
16828;SDS011;8531;48.078;11.968;2023-02-23T01:22:43;11.60;;;8.48;;
16828;SDS011;8531;48.078;11.968;2023-02-23T01:25:11;13.00;;;8.57;;
16828;SDS011;8531;48.078;11.968;2023-02-23T01:27:37;11.88;;;8.90;;
16828;SDS011;8531;48.078;11.968;2023-02-23T01:30:04;13.35;;;9.20;;
16828;SDS011;8531;48.078;11.968;2023-02-23T01:32:30;11.77;;;8.68;;
16828;SDS011;8531;48.078;11.968;2023-02-23T01:34:56;14.27;;;9.00;;
16828;SDS011;8531;48.078;11.968;2023-02-23T01:37:21;13.73;;;9.63;;
16828;SDS011;8531;48.078;11.968;2023-02-23T01:39:47;11.20;;;9.30;;
16828;SDS011;8531;48.078;11.968;2023-02-23T01:42:13;11.23;;;9.07;;
16828;SDS011;8531;48.078;11.968;2023-02-23T01:47:04;13.00;;;9.60;;
16828;SDS011;8531;48.078;11.968;2023-02-23T01:49:31;14.48;;;9.85;;
16828;SDS011;8531;48.078;11.968;2023-02-23T01:52:04;10.98;;;9.05;;
16828;SDS011;8531;48.078;11.968;2023-02-23T01:54:37;11.80;;;8.65;;
16828;SDS011;8531;48.078;11.968;2023-02-23T01:57:06;13.23;;;9.60;;
16828;SDS011;8531;48.078;11.968;2023-02-23T01:59:36;14.75;;;10.38;;
16828;SDS011;8531;48.078;11.968;2023-02-23T02:02:05;13.75;;;10.30;;
16828;SDS011;8531;48.078;11.968;2023-02-23T02:04:33;14.32;;;9.63;;
16828;SDS011;8531;48.078;11.968;2023-02-23T02:07:08;13.57;;;10.15;;
16828;SDS011;8531;48.078;11.968;2023-02-23T02:09:42;13.98;;;10.05;;
16828;SDS011;8531;48.078;11.968;2023-02-23T02:12:28;16.10;;;10.45;;
16828;SDS011;8531;48.078;11.968;2023-02-23T02:14:55;14.23;;;10.43;;
16828;SDS011;8531;48.078;11.968;2023-02-23T02:39:11;16.48;;;10.68;;
16828;SDS011;8531;48.078;11.968;2023-02-23T02:47:10;13.98;;;10.82;;
16828;SDS011;8531;48.078;11.968;2023-02-23T02:49:51;15.20;;;11.20;;
16828;SDS011;8531;48.078;11.968;2023-02-23T02:52:29;15.75;;;11.23;;
16828;SDS011;8531;48.078;11.968;2023-02-23T02:55:05;14.32;;;10.38;;
16828;SDS011;8531;48.078;11.968;2023-02-23T02:57:36;15.68;;;10.93;;
16828;SDS011;8531;48.078;11.968;2023-02-23T03:00:03;17.77;;;12.55;;
16828;SDS011;8531;48.078;11.968;2023-02-23T03:02:47;16.42;;;11.32;;
16828;SDS011;8531;48.078;11.968;2023-02-23T03:05:39;16.50;;;11.40;;
16828;SDS011;8531;48.078;11.968;2023-02-23T03:08:31;14.68;;;10.95;;
16828;SDS011;8531;48.078;11.968;2023-02-23T03:11:27;16.60;;;11.32;;
16828;SDS011;8531;48.078;11.968;2023-02-23T03:17:26;15.48;;;11.65;;
16828;SDS011;8531;48.078;11.968;2023-02-23T03:23:19;15.15;;;10.73;;
16828;SDS011;8531;48.078;11.968;2023-02-23T03:26:13;15.60;;;11.20;;
16828;SDS011;8531;48.078;11.968;2023-02-23T03:29:25;20.45;;;12.43;;
16828;SDS011;8531;48.078;11.968;2023-02-23T03:32:42;16.38;;;11.73;;
16828;SDS011;8531;48.078;11.968;2023-02-23T03:38:25;18.55;;;13.40;;
16828;SDS011;8531;48.078;11.968;2023-02-23T03:41:17;15.45;;;12.05;;
16828;SDS011;8531;48.078;11.968;2023-02-23T03:44:07;19.08;;;13.27;;
16828;SDS011;8531;48.078;11.968;2023-02-23T03:46:54;17.05;;;12.40;;
16828;SDS011;8531;48.078;11.968;2023-02-23T03:49:41;18.15;;;13.52;;
16828;SDS011;8531;48.078;11.968;2023-02-23T03:52:31;16.33;;;12.60;;
16828;SDS011;8531;48.078;11.968;2023-02-23T03:55:31;15.68;;;12.02;;
16828;SDS011;8531;48.078;11.968;2023-02-23T03:58:20;15.48;;;11.63;;
16828;SDS011;8531;48.078;11.968;2023-02-23T04:01:19;18.13;;;12.80;;
16828;SDS011;8531;48.078;11.968;2023-02-23T04:04:05;16.85;;;12.48;;
16828;SDS011;8531;48.078;11.968;2023-02-23T04:06:52;19.50;;;12.95;;
16828;SDS011;8531;48.078;11.968;2023-02-23T04:09:39;17.50;;;12.05;;
16828;SDS011;8531;48.078;11.968;2023-02-23T04:12:33;16.20;;;12.13;;
16828;SDS011;8531;48.078;11.968;2023-02-23T04:15:26;20.08;;;13.38;;
16828;SDS011;8531;48.078;11.968;2023-02-23T04:17:57;19.50;;;13.50;;
16828;SDS011;8531;48.078;11.968;2023-02-23T04:20:23;16.33;;;11.90;;
16828;SDS011;8531;48.078;11.968;2023-02-23T04:22:50;18.58;;;13.93;;
16828;SDS011;8531;48.078;11.968;2023-02-23T04:25:16;19.25;;;13.40;;
16828;SDS011;8531;48.078;11.968;2023-02-23T04:27:46;18.17;;;13.13;;
16828;SDS011;8531;48.078;11.968;2023-02-23T04:30:15;16.70;;;13.02;;
16828;SDS011;8531;48.078;11.968;2023-02-23T04:32:41;16.77;;;12.52;;
16828;SDS011;8531;48.078;11.968;2023-02-23T04:35:10;14.90;;;11.88;;
16828;SDS011;8531;48.078;11.968;2023-02-23T04:37:37;16.48;;;12.68;;
16828;SDS011;8531;48.078;11.968;2023-02-23T04:40:03;19.85;;;12.82;;
16828;SDS011;8531;48.078;11.968;2023-02-23T04:42:29;16.95;;;12.68;;
16828;SDS011;8531;48.078;11.968;2023-02-23T04:44:55;17.83;;;13.07;;
16828;SDS011;8531;48.078;11.968;2023-02-23T04:47:20;18.92;;;13.13;;
16828;SDS011;8531;48.078;11.968;2023-02-23T04:49:46;15.80;;;12.23;;
16828;SDS011;8531;48.078;11.968;2023-02-23T04:52:12;19.77;;;12.95;;
16828;SDS011;8531;48.078;11.968;2023-02-23T04:54:38;17.35;;;12.88;;
16828;SDS011;8531;48.078;11.968;2023-02-23T04:57:04;20.10;;;13.25;;
16828;SDS011;8531;48.078;11.968;2023-02-23T04:59:30;19.10;;;13.70;;
16828;SDS011;8531;48.078;11.968;2023-02-23T05:01:56;17.83;;;11.95;;
16828;SDS011;8531;48.078;11.968;2023-02-23T05:04:22;16.55;;;13.10;;
16828;SDS011;8531;48.078;11.968;2023-02-23T05:06:48;18.95;;;12.55;;
16828;SDS011;8531;48.078;11.968;2023-02-23T05:09:14;17.27;;;13.65;;
16828;SDS011;8531;48.078;11.968;2023-02-23T05:11:40;17.73;;;13.90;;
16828;SDS011;8531;48.078;11.968;2023-02-23T05:14:05;19.60;;;13.07;;
16828;SDS011;8531;48.078;11.968;2023-02-23T05:16:31;20.45;;;13.15;;
16828;SDS011;8531;48.078;11.968;2023-02-23T05:18:57;19.83;;;14.02;;
16828;SDS011;8531;48.078;11.968;2023-02-23T05:21:22;19.55;;;14.90;;
16828;SDS011;8531;48.078;11.968;2023-02-23T05:23:49;16.52;;;12.73;;
16828;SDS011;8531;48.078;11.968;2023-02-23T05:26:15;15.63;;;12.25;;
16828;SDS011;8531;48.078;11.968;2023-02-23T05:28:42;16.27;;;12.85;;
16828;SDS011;8531;48.078;11.968;2023-02-23T05:31:08;18.42;;;14.20;;
16828;SDS011;8531;48.078;11.968;2023-02-23T05:33:34;19.95;;;13.98;;
16828;SDS011;8531;48.078;11.968;2023-02-23T05:36:07;19.27;;;13.63;;
16828;SDS011;8531;48.078;11.968;2023-02-23T05:38:37;22.10;;;13.98;;
16828;SDS011;8531;48.078;11.968;2023-02-23T05:41:09;17.58;;;13.18;;
16828;SDS011;8531;48.078;11.968;2023-02-23T05:43:36;20.25;;;14.90;;
16828;SDS011;8531;48.078;11.968;2023-02-23T05:46:09;15.90;;;12.48;;
16828;SDS011;8531;48.078;11.968;2023-02-23T05:48:37;23.02;;;14.93;;
16828;SDS011;8531;48.078;11.968;2023-02-23T05:51:04;16.70;;;12.55;;
16828;SDS011;8531;48.078;11.968;2023-02-23T05:53:31;15.43;;;12.50;;
16828;SDS011;8531;48.078;11.968;2023-02-23T05:55:57;16.88;;;12.93;;
16828;SDS011;8531;48.078;11.968;2023-02-23T05:58:23;15.75;;;12.75;;
16828;SDS011;8531;48.078;11.968;2023-02-23T06:00:49;18.55;;;13.25;;
16828;SDS011;8531;48.078;11.968;2023-02-23T06:03:15;16.25;;;12.02;;
16828;SDS011;8531;48.078;11.968;2023-02-23T06:05:41;16.80;;;13.80;;
16828;SDS011;8531;48.078;11.968;2023-02-23T06:08:07;19.40;;;12.63;;
16828;SDS011;8531;48.078;11.968;2023-02-23T06:10:33;17.27;;;12.20;;
16828;SDS011;8531;48.078;11.968;2023-02-23T06:12:58;19.73;;;13.90;;
16828;SDS011;8531;48.078;11.968;2023-02-23T06:15:24;16.05;;;12.45;;
16828;SDS011;8531;48.078;11.968;2023-02-23T06:17:50;16.83;;;12.15;;
16828;SDS011;8531;48.078;11.968;2023-02-23T06:20:15;16.63;;;12.77;;
16828;SDS011;8531;48.078;11.968;2023-02-23T06:22:41;22.67;;;13.55;;
16828;SDS011;8531;48.078;11.968;2023-02-23T06:25:07;20.33;;;14.38;;
16828;SDS011;8531;48.078;11.968;2023-02-23T06:27:37;20.50;;;14.35;;
16828;SDS011;8531;48.078;11.968;2023-02-23T06:30:04;17.33;;;13.45;;
16828;SDS011;8531;48.078;11.968;2023-02-23T06:32:30;23.48;;;14.80;;
16828;SDS011;8531;48.078;11.968;2023-02-23T06:34:56;19.13;;;14.55;;
16828;SDS011;8531;48.078;11.968;2023-02-23T06:37:21;25.02;;;15.52;;
16828;SDS011;8531;48.078;11.968;2023-02-23T06:39:47;19.58;;;13.40;;
16828;SDS011;8531;48.078;11.968;2023-02-23T06:42:14;20.10;;;13.30;;
16828;SDS011;8531;48.078;11.968;2023-02-23T06:44:40;17.27;;;13.77;;
16828;SDS011;8531;48.078;11.968;2023-02-23T06:47:06;19.83;;;13.35;;
16828;SDS011;8531;48.078;11.968;2023-02-23T06:49:31;22.50;;;15.60;;
16828;SDS011;8531;48.078;11.968;2023-02-23T06:51:57;34.88;;;24.35;;
16828;SDS011;8531;48.078;11.968;2023-02-23T06:54:23;22.27;;;15.23;;
16828;SDS011;8531;48.078;11.968;2023-02-23T06:56:48;25.70;;;15.65;;
16828;SDS011;8531;48.078;11.968;2023-02-23T06:59:14;18.13;;;13.82;;
16828;SDS011;8531;48.078;11.968;2023-02-23T07:01:40;17.00;;;12.70;;
16828;SDS011;8531;48.078;11.968;2023-02-23T07:04:08;20.65;;;13.65;;
16828;SDS011;8531;48.078;11.968;2023-02-23T07:06:35;29.27;;;14.52;;
16828;SDS011;8531;48.078;11.968;2023-02-23T07:09:02;16.35;;;12.90;;
16828;SDS011;8531;48.078;11.968;2023-02-23T07:11:28;17.77;;;12.60;;
16828;SDS011;8531;48.078;11.968;2023-02-23T07:13:56;15.35;;;11.43;;
16828;SDS011;8531;48.078;11.968;2023-02-23T07:16:22;19.80;;;13.00;;
16828;SDS011;8531;48.078;11.968;2023-02-23T07:18:48;17.73;;;12.75;;
16828;SDS011;8531;48.078;11.968;2023-02-23T07:21:14;17.55;;;12.57;;
16828;SDS011;8531;48.078;11.968;2023-02-23T07:23:39;24.27;;;14.18;;
16828;SDS011;8531;48.078;11.968;2023-02-23T07:26:05;17.83;;;13.27;;
16828;SDS011;8531;48.078;11.968;2023-02-23T07:28:31;15.85;;;11.82;;
16828;SDS011;8531;48.078;11.968;2023-02-23T07:30:56;22.25;;;13.02;;
16828;SDS011;8531;48.078;11.968;2023-02-23T07:33:23;15.15;;;11.93;;
16828;SDS011;8531;48.078;11.968;2023-02-23T07:35:49;17.45;;;12.60;;
16828;SDS011;8531;48.078;11.968;2023-02-23T07:38:15;16.27;;;11.75;;
16828;SDS011;8531;48.078;11.968;2023-02-23T07:40:41;17.52;;;12.30;;
16828;SDS011;8531;48.078;11.968;2023-02-23T07:43:08;14.23;;;11.02;;
16828;SDS011;8531;48.078;11.968;2023-02-23T07:45:34;15.90;;;12.05;;
16828;SDS011;8531;48.078;11.968;2023-02-23T07:48:00;23.98;;;12.93;;
16828;SDS011;8531;48.078;11.968;2023-02-23T07:50:26;23.70;;;13.30;;
16828;SDS011;8531;48.078;11.968;2023-02-23T07:52:52;17.02;;;12.10;;
16828;SDS011;8531;48.078;11.968;2023-02-23T07:55:17;18.35;;;13.05;;
16828;SDS011;8531;48.078;11.968;2023-02-23T07:57:43;14.88;;;11.25;;
16828;SDS011;8531;48.078;11.968;2023-02-23T08:00:09;17.70;;;12.90;;
16828;SDS011;8531;48.078;11.968;2023-02-23T08:02:35;17.92;;;12.15;;
16828;SDS011;8531;48.078;11.968;2023-02-23T08:05:01;14.38;;;10.98;;
16828;SDS011;8531;48.078;11.968;2023-02-23T08:07:27;18.35;;;10.93;;
16828;SDS011;8531;48.078;11.968;2023-02-23T08:09:56;20.05;;;11.25;;
16828;SDS011;8531;48.078;11.968;2023-02-23T08:12:22;16.10;;;11.77;;
16828;SDS011;8531;48.078;11.968;2023-02-23T08:14:47;12.48;;;10.02;;
16828;SDS011;8531;48.078;11.968;2023-02-23T08:17:13;14.93;;;10.13;;
16828;SDS011;8531;48.078;11.968;2023-02-23T08:19:39;12.27;;;10.98;;
16828;SDS011;8531;48.078;11.968;2023-02-23T08:22:04;15.55;;;10.75;;
16828;SDS011;8531;48.078;11.968;2023-02-23T08:24:30;13.82;;;11.15;;
16828;SDS011;8531;48.078;11.968;2023-02-23T08:26:57;18.20;;;9.75;;
16828;SDS011;8531;48.078;11.968;2023-02-23T08:29:23;17.35;;;10.93;;
16828;SDS011;8531;48.078;11.968;2023-02-23T08:31:49;12.07;;;9.48;;
16828;SDS011;8531;48.078;11.968;2023-02-23T08:34:16;11.75;;;9.50;;
16828;SDS011;8531;48.078;11.968;2023-02-23T08:36:42;14.00;;;9.80;;
16828;SDS011;8531;48.078;11.968;2023-02-23T08:39:09;15.75;;;9.80;;
16828;SDS011;8531;48.078;11.968;2023-02-23T08:41:36;11.20;;;9.63;;
16828;SDS011;8531;48.078;11.968;2023-02-23T08:44:02;14.53;;;9.63;;
16828;SDS011;8531;48.078;11.968;2023-02-23T08:46:29;16.02;;;10.52;;
16828;SDS011;8531;48.078;11.968;2023-02-23T08:48:55;11.18;;;8.95;;
16828;SDS011;8531;48.078;11.968;2023-02-23T08:51:21;13.70;;;9.55;;
16828;SDS011;8531;48.078;11.968;2023-02-23T08:53:47;13.57;;;10.13;;
16828;SDS011;8531;48.078;11.968;2023-02-23T08:56:13;14.88;;;10.63;;
16828;SDS011;8531;48.078;11.968;2023-02-23T08:58:40;11.80;;;8.98;;
16828;SDS011;8531;48.078;11.968;2023-02-23T09:01:14;16.08;;;10.65;;
16828;SDS011;8531;48.078;11.968;2023-02-23T09:03:43;12.15;;;9.45;;
16828;SDS011;8531;48.078;11.968;2023-02-23T09:06:12;14.05;;;9.57;;
16828;SDS011;8531;48.078;11.968;2023-02-23T09:08:40;12.43;;;10.07;;
16828;SDS011;8531;48.078;11.968;2023-02-23T09:11:06;12.40;;;9.95;;
16828;SDS011;8531;48.078;11.968;2023-02-23T09:13:32;12.98;;;9.98;;
16828;SDS011;8531;48.078;11.968;2023-02-23T09:15:58;16.70;;;10.30;;
16828;SDS011;8531;48.078;11.968;2023-02-23T09:18:24;12.25;;;9.75;;
16828;SDS011;8531;48.078;11.968;2023-02-23T09:20:53;13.30;;;9.10;;
16828;SDS011;8531;48.078;11.968;2023-02-23T09:23:19;12.05;;;9.32;;
16828;SDS011;8531;48.078;11.968;2023-02-23T09:25:46;10.70;;;8.73;;
16828;SDS011;8531;48.078;11.968;2023-02-23T09:28:13;17.83;;;10.40;;
16828;SDS011;8531;48.078;11.968;2023-02-23T09:30:40;11.70;;;9.07;;
16828;SDS011;8531;48.078;11.968;2023-02-23T09:33:07;12.18;;;9.60;;
16828;SDS011;8531;48.078;11.968;2023-02-23T09:35:34;16.13;;;10.18;;
16828;SDS011;8531;48.078;11.968;2023-02-23T09:38:01;13.65;;;9.65;;
16828;SDS011;8531;48.078;11.968;2023-02-23T09:40:29;23.15;;;11.18;;
16828;SDS011;8531;48.078;11.968;2023-02-23T09:48:31;15.60;;;10.43;;
16828;SDS011;8531;48.078;11.968;2023-02-23T09:50:58;13.15;;;10.15;;
16828;SDS011;8531;48.078;11.968;2023-02-23T09:56:29;15.82;;;9.80;;
16828;SDS011;8531;48.078;11.968;2023-02-23T09:58:55;16.95;;;9.95;;
16828;SDS011;8531;48.078;11.968;2023-02-23T10:06:24;16.95;;;9.35;;
16828;SDS011;8531;48.078;11.968;2023-02-23T10:11:39;15.82;;;9.95;;
16828;SDS011;8531;48.078;11.968;2023-02-23T10:16:44;12.20;;;8.23;;
16828;SDS011;8531;48.078;11.968;2023-02-23T10:22:00;14.27;;;9.30;;
16828;SDS011;8531;48.078;11.968;2023-02-23T10:27:19;18.20;;;9.05;;
16828;SDS011;8531;48.078;11.968;2023-02-23T10:29:51;21.98;;;9.95;;
16828;SDS011;8531;48.078;11.968;2023-02-23T10:35:15;12.90;;;9.25;;
16828;SDS011;8531;48.078;11.968;2023-02-23T10:37:43;12.80;;;9.57;;
16828;SDS011;8531;48.078;11.968;2023-02-23T10:40:17;19.45;;;9.55;;
16828;SDS011;8531;48.078;11.968;2023-02-23T10:42:48;15.55;;;8.82;;
16828;SDS011;8531;48.078;11.968;2023-02-23T10:45:16;22.00;;;9.80;;
16828;SDS011;8531;48.078;11.968;2023-02-23T10:47:47;14.07;;;9.60;;
16828;SDS011;8531;48.078;11.968;2023-02-23T10:50:17;15.27;;;9.05;;
16828;SDS011;8531;48.078;11.968;2023-02-23T10:52:47;14.27;;;9.13;;
16828;SDS011;8531;48.078;11.968;2023-02-23T10:55:22;10.25;;;8.25;;
16828;SDS011;8531;48.078;11.968;2023-02-23T10:57:59;17.52;;;9.77;;
16828;SDS011;8531;48.078;11.968;2023-02-23T11:00:54;9.98;;;7.72;;
16828;SDS011;8531;48.078;11.968;2023-02-23T11:05:51;12.25;;;8.40;;
16828;SDS011;8531;48.078;11.968;2023-02-23T11:08:27;10.82;;;8.30;;
16828;SDS011;8531;48.078;11.968;2023-02-23T11:11:05;12.23;;;8.45;;
16828;SDS011;8531;48.078;11.968;2023-02-23T11:13:41;22.00;;;9.40;;
16828;SDS011;8531;48.078;11.968;2023-02-23T11:16:12;14.13;;;7.63;;
16828;SDS011;8531;48.078;11.968;2023-02-23T11:18:53;11.70;;;7.80;;
16828;SDS011;8531;48.078;11.968;2023-02-23T11:23:54;13.60;;;7.47;;
16828;SDS011;8531;48.078;11.968;2023-02-23T11:28:58;13.52;;;8.23;;
16828;SDS011;8531;48.078;11.968;2023-02-23T11:31:32;25.23;;;10.02;;
16828;SDS011;8531;48.078;11.968;2023-02-23T11:34:01;13.93;;;7.60;;
16828;SDS011;8531;48.078;11.968;2023-02-23T11:36:29;12.45;;;7.75;;
16828;SDS011;8531;48.078;11.968;2023-02-23T11:41:41;10.77;;;7.88;;
16828;SDS011;8531;48.078;11.968;2023-02-23T11:44:09;21.88;;;8.43;;
16828;SDS011;8531;48.078;11.968;2023-02-23T11:46:44;10.10;;;7.05;;
16828;SDS011;8531;48.078;11.968;2023-02-23T11:49:28;17.20;;;7.35;;
16828;SDS011;8531;48.078;11.968;2023-02-23T11:52:00;12.30;;;6.65;;
16828;SDS011;8531;48.078;11.968;2023-02-23T11:56:52;5.75;;;5.00;;
16828;SDS011;8531;48.078;11.968;2023-02-23T11:59:25;15.23;;;6.75;;
16828;SDS011;8531;48.078;11.968;2023-02-23T12:02:02;11.18;;;5.90;;
16828;SDS011;8531;48.078;11.968;2023-02-23T12:04:43;11.75;;;6.47;;
16828;SDS011;8531;48.078;11.968;2023-02-23T12:12:45;11.13;;;7.43;;
16828;SDS011;8531;48.078;11.968;2023-02-23T12:15:46;8.25;;;5.80;;
16828;SDS011;8531;48.078;11.968;2023-02-23T12:21:51;7.75;;;6.18;;
16828;SDS011;8531;48.078;11.968;2023-02-23T12:26:59;9.13;;;5.80;;
16828;SDS011;8531;48.078;11.968;2023-02-23T12:29:46;7.38;;;6.07;;
16828;SDS011;8531;48.078;11.968;2023-02-23T12:35:22;12.30;;;6.50;;
16828;SDS011;8531;48.078;11.968;2023-02-23T12:38:05;8.15;;;5.80;;
16828;SDS011;8531;48.078;11.968;2023-02-23T12:40:58;11.30;;;6.38;;
16828;SDS011;8531;48.078;11.968;2023-02-23T12:43:36;10.23;;;6.47;;
16828;SDS011;8531;48.078;11.968;2023-02-23T12:46:34;9.18;;;5.85;;
16828;SDS011;8531;48.078;11.968;2023-02-23T12:51:53;14.10;;;7.05;;
16828;SDS011;8531;48.078;11.968;2023-02-23T12:54:21;9.32;;;6.25;;
16828;SDS011;8531;48.078;11.968;2023-02-23T12:59:19;10.70;;;6.07;;
16828;SDS011;8531;48.078;11.968;2023-02-23T13:01:59;9.95;;;6.50;;
16828;SDS011;8531;48.078;11.968;2023-02-23T13:07:14;7.32;;;6.47;;
16828;SDS011;8531;48.078;11.968;2023-02-23T13:12:56;12.30;;;6.55;;
16828;SDS011;8531;48.078;11.968;2023-02-23T13:31:24;9.23;;;6.13;;
16828;SDS011;8531;48.078;11.968;2023-02-23T13:33:53;10.55;;;6.32;;
16828;SDS011;8531;48.078;11.968;2023-02-23T13:36:21;11.13;;;6.03;;
16828;SDS011;8531;48.078;11.968;2023-02-23T13:47:26;8.05;;;5.95;;
16828;SDS011;8531;48.078;11.968;2023-02-23T13:52:42;10.10;;;6.40;;
16828;SDS011;8531;48.078;11.968;2023-02-23T13:55:56;6.60;;;5.65;;
16828;SDS011;8531;48.078;11.968;2023-02-23T13:58:16;4.85;;;4.35;;
16828;SDS011;8531;48.078;11.968;2023-02-23T14:01:02;6.55;;;5.35;;
16828;SDS011;8531;48.078;11.968;2023-02-23T14:03:35;5.97;;;5.13;;
16828;SDS011;8531;48.078;11.968;2023-02-23T14:06:16;9.30;;;6.30;;
16828;SDS011;8531;48.078;11.968;2023-02-23T14:08:51;9.60;;;6.07;;
16828;SDS011;8531;48.078;11.968;2023-02-23T14:11:43;7.53;;;5.70;;
16828;SDS011;8531;48.078;11.968;2023-02-23T14:20:01;10.07;;;6.75;;
16828;SDS011;8531;48.078;11.968;2023-02-23T14:23:04;6.57;;;5.63;;
16828;SDS011;8531;48.078;11.968;2023-02-23T14:27:59;8.98;;;6.35;;
16828;SDS011;8531;48.078;11.968;2023-02-23T14:30:27;18.90;;;7.05;;
16828;SDS011;8531;48.078;11.968;2023-02-23T14:32:53;8.43;;;6.00;;
16828;SDS011;8531;48.078;11.968;2023-02-23T14:35:46;7.05;;;5.80;;
16828;SDS011;8531;48.078;11.968;2023-02-23T14:38:23;7.10;;;5.60;;
16828;SDS011;8531;48.078;11.968;2023-02-23T14:40:55;14.65;;;7.50;;
16828;SDS011;8531;48.078;11.968;2023-02-23T14:45:55;7.65;;;6.38;;
16828;SDS011;8531;48.078;11.968;2023-02-23T14:48:21;8.00;;;6.95;;
16828;SDS011;8531;48.078;11.968;2023-02-23T14:50:47;8.23;;;7.25;;
16828;SDS011;8531;48.078;11.968;2023-02-23T14:53:17;8.73;;;6.90;;
16828;SDS011;8531;48.078;11.968;2023-02-23T14:55:46;9.50;;;6.47;;
16828;SDS011;8531;48.078;11.968;2023-02-23T14:58:29;8.85;;;7.18;;
16828;SDS011;8531;48.078;11.968;2023-02-23T15:00:57;11.55;;;7.43;;
16828;SDS011;8531;48.078;11.968;2023-02-23T15:03:23;9.85;;;7.47;;
16828;SDS011;8531;48.078;11.968;2023-02-23T15:05:49;10.15;;;7.30;;
16828;SDS011;8531;48.078;11.968;2023-02-23T15:08:20;7.97;;;6.25;;
16828;SDS011;8531;48.078;11.968;2023-02-23T15:10:58;10.45;;;6.45;;
16828;SDS011;8531;48.078;11.968;2023-02-23T15:13:35;9.73;;;7.82;;
16828;SDS011;8531;48.078;11.968;2023-02-23T15:16:13;7.93;;;6.22;;
16828;SDS011;8531;48.078;11.968;2023-02-23T15:21:53;9.90;;;6.55;;
16828;SDS011;8531;48.078;11.968;2023-02-23T15:24:26;8.77;;;6.28;;
16828;SDS011;8531;48.078;11.968;2023-02-23T15:26:55;8.07;;;6.18;;
16828;SDS011;8531;48.078;11.968;2023-02-23T15:29:22;11.68;;;9.40;;
16828;SDS011;8531;48.078;11.968;2023-02-23T15:31:51;11.82;;;10.10;;
16828;SDS011;8531;48.078;11.968;2023-02-23T15:37:05;8.60;;;6.97;;
16828;SDS011;8531;48.078;11.968;2023-02-23T15:39:42;10.20;;;8.18;;
16828;SDS011;8531;48.078;11.968;2023-02-23T15:42:12;12.00;;;7.90;;
16828;SDS011;8531;48.078;11.968;2023-02-23T15:44:41;12.38;;;8.48;;
16828;SDS011;8531;48.078;11.968;2023-02-23T15:47:09;10.27;;;8.10;;
16828;SDS011;8531;48.078;11.968;2023-02-23T15:49:45;12.27;;;8.38;;
16828;SDS011;8531;48.078;11.968;2023-02-23T15:52:15;12.32;;;8.63;;
16828;SDS011;8531;48.078;11.968;2023-02-23T15:57:31;14.57;;;8.68;;
16828;SDS011;8531;48.078;11.968;2023-02-23T16:00:03;10.07;;;7.50;;
16828;SDS011;8531;48.078;11.968;2023-02-23T16:02:40;12.02;;;9.10;;
16828;SDS011;8531;48.078;11.968;2023-02-23T16:05:21;11.18;;;9.20;;
16828;SDS011;8531;48.078;11.968;2023-02-23T16:07:53;10.57;;;8.77;;
16828;SDS011;8531;48.078;11.968;2023-02-23T16:10:29;10.68;;;8.50;;
16828;SDS011;8531;48.078;11.968;2023-02-23T16:13:14;9.70;;;8.68;;
16828;SDS011;8531;48.078;11.968;2023-02-23T16:15:44;9.55;;;8.50;;
16828;SDS011;8531;48.078;11.968;2023-02-23T16:18:11;11.70;;;8.65;;
16828;SDS011;8531;48.078;11.968;2023-02-23T16:20:56;11.50;;;8.77;;
16828;SDS011;8531;48.078;11.968;2023-02-23T16:26:13;11.25;;;8.73;;
16828;SDS011;8531;48.078;11.968;2023-02-23T16:28:50;10.23;;;8.73;;
16828;SDS011;8531;48.078;11.968;2023-02-23T16:31:23;10.60;;;8.80;;
16828;SDS011;8531;48.078;11.968;2023-02-23T16:34:16;12.30;;;9.38;;
16828;SDS011;8531;48.078;11.968;2023-02-23T16:36:49;10.82;;;8.85;;
16828;SDS011;8531;48.078;11.968;2023-02-23T16:39:19;12.80;;;10.00;;
16828;SDS011;8531;48.078;11.968;2023-02-23T16:41:49;11.38;;;8.98;;
16828;SDS011;8531;48.078;11.968;2023-02-23T16:44:19;9.43;;;8.38;;
16828;SDS011;8531;48.078;11.968;2023-02-23T16:46:55;10.93;;;7.88;;
16828;SDS011;8531;48.078;11.968;2023-02-23T16:49:25;12.98;;;8.30;;
16828;SDS011;8531;48.078;11.968;2023-02-23T16:51:53;10.73;;;8.60;;
16828;SDS011;8531;48.078;11.968;2023-02-23T16:54:20;9.23;;;7.47;;
16828;SDS011;8531;48.078;11.968;2023-02-23T16:56:46;10.82;;;8.90;;
16828;SDS011;8531;48.078;11.968;2023-02-23T16:59:15;12.82;;;8.85;;
16828;SDS011;8531;48.078;11.968;2023-02-23T17:01:42;18.05;;;12.77;;
16828;SDS011;8531;48.078;11.968;2023-02-23T17:04:13;13.77;;;10.07;;
16828;SDS011;8531;48.078;11.968;2023-02-23T17:06:41;14.45;;;9.80;;
16828;SDS011;8531;48.078;11.968;2023-02-23T17:09:08;13.90;;;9.82;;
16828;SDS011;8531;48.078;11.968;2023-02-23T17:11:34;11.82;;;9.63;;
16828;SDS011;8531;48.078;11.968;2023-02-23T17:14:00;12.70;;;10.05;;
16828;SDS011;8531;48.078;11.968;2023-02-23T17:16:26;11.68;;;9.15;;
16828;SDS011;8531;48.078;11.968;2023-02-23T17:18:51;11.48;;;9.73;;
16828;SDS011;8531;48.078;11.968;2023-02-23T17:21:18;14.73;;;10.20;;
16828;SDS011;8531;48.078;11.968;2023-02-23T17:23:48;13.27;;;10.27;;
16828;SDS011;8531;48.078;11.968;2023-02-23T17:26:15;13.90;;;10.50;;
16828;SDS011;8531;48.078;11.968;2023-02-23T17:28:42;11.82;;;9.68;;
16828;SDS011;8531;48.078;11.968;2023-02-23T17:31:08;15.15;;;11.60;;